createdAt,value
2019-02-28T00:00:11.168Z,25.77
2019-02-28T00:01:20.984Z,25.08
2019-02-28T00:02:28.391Z,26.48
2019-02-28T00:03:32.508Z,24.00
2019-02-28T00:04:36.603Z,27.87
2019-02-28T00:05:40.747Z,24.35
2019-02-28T00:06:45.201Z,28.42
2019-02-28T00:07:49.778Z,21.12
2019-02-28T00:08:54.734Z,23.20
2019-02-28T00:09:58.919Z,21.17
2019-02-28T00:11:05.021Z,21.73
2019-02-28T00:12:10.216Z,30.65
2019-02-28T00:13:14.702Z,25.20
2019-02-28T00:14:18.811Z,22.98
2019-02-28T00:15:22.989Z,28.02
2019-02-28T00:16:27.087Z,19.62
2019-02-28T00:17:31.479Z,22.45
2019-02-28T00:18:35.615Z,24.80
2019-02-28T00:19:40.195Z,25.43
2019-02-28T00:20:44.325Z,28.07
2019-02-28T00:21:48.475Z,23.30
2019-02-28T00:22:52.687Z,24.75
2019-02-28T00:23:57.524Z,21.87
2019-02-28T00:25:04.382Z,21.48
2019-02-28T00:26:11.392Z,23.60
2019-02-28T00:27:13.356Z,27.30
2019-02-28T00:28:17.778Z,21.45
2019-02-28T00:29:22.004Z,24.45
2019-02-28T00:30:26.845Z,21.12
2019-02-28T00:31:31.312Z,24.67
2019-02-28T00:32:35.706Z,21.42
2019-02-28T00:33:39.867Z,21.87
2019-02-28T00:34:44.355Z,20.62
2019-02-28T00:35:48.725Z,22.15
2019-02-28T00:36:53.443Z,23.00
2019-02-28T00:37:58.230Z,20.05
2019-02-28T00:39:04.102Z,24.95
2019-02-28T00:40:08.639Z,21.42
2019-02-28T00:41:12.745Z,23.35
2019-02-28T00:42:17.684Z,23.32
2019-02-28T00:43:25.123Z,22.95
2019-02-28T00:44:31.231Z,29.23
2019-02-28T00:45:37.123Z,20.00
2019-02-28T00:46:43.988Z,22.95
2019-02-28T00:47:47.444Z,20.25
2019-02-28T00:48:52.966Z,18.90
2019-02-28T00:49:57.399Z,22.32
2019-02-28T00:51:01.642Z,20.40
2019-02-28T00:52:05.785Z,20.10
2019-02-28T00:53:09.983Z,23.40
2019-02-28T00:54:14.365Z,18.77
2019-02-28T00:55:18.522Z,22.22
2019-02-28T00:56:22.625Z,21.25
2019-02-28T00:57:26.835Z,24.10
2019-02-28T00:58:31.202Z,24.00
2019-02-28T00:59:38.733Z,21.40
2019-02-28T01:00:42.880Z,18.70
2019-02-28T01:01:47.365Z,21.75
2019-02-28T01:02:53.458Z,20.23
2019-02-28T01:03:57.990Z,17.17
2019-02-28T01:05:04.979Z,21.48
2019-02-28T01:06:10.671Z,19.73
2019-02-28T01:07:16.283Z,18.48
2019-02-28T01:08:22.140Z,18.73
2019-02-28T01:09:27.156Z,18.52
2019-02-28T01:10:38.830Z,19.82
2019-02-28T01:11:38.810Z,18.15
2019-02-28T01:12:42.966Z,26.65
2019-02-28T01:13:47.063Z,24.30
2019-02-28T01:14:51.575Z,19.40
2019-02-28T01:15:55.712Z,19.65
2019-02-28T01:16:59.885Z,23.85
2019-02-28T01:18:03.958Z,19.77
2019-02-28T01:19:09.073Z,23.25
2019-02-28T01:20:16.030Z,19.50
2019-02-28T01:21:23.667Z,19.87
2019-02-28T01:22:26.987Z,19.87
2019-02-28T01:23:32.194Z,21.17
2019-02-28T01:24:36.307Z,18.17
2019-02-28T01:25:40.940Z,23.07
2019-02-28T01:26:46.768Z,23.10
2019-02-28T01:27:52.420Z,18.40
2019-02-28T01:29:01.480Z,21.68
2019-02-28T01:30:02.750Z,20.10
2019-02-28T01:31:06.868Z,21.23
2019-02-28T01:32:15.297Z,20.72
2019-02-28T01:33:16.799Z,23.98
2019-02-28T01:34:20.907Z,23.02
2019-02-28T01:35:25.376Z,26.00
2019-02-28T01:36:29.532Z,21.27
2019-02-28T01:37:33.664Z,20.60
2019-02-28T01:38:37.782Z,26.70
2019-02-28T01:39:41.979Z,26.27
2019-02-28T01:40:46.167Z,18.35
2019-02-28T01:41:50.256Z,20.50
2019-02-28T01:42:55.128Z,22.50
2019-02-28T01:44:01.698Z,20.52
2019-02-28T01:45:06.997Z,24.47
2019-02-28T01:46:11.180Z,23.25
2019-02-28T01:47:15.394Z,18.87
2019-02-28T01:48:22.599Z,20.40
2019-02-28T01:49:26.887Z,21.05
2019-02-28T01:50:31.111Z,20.23
2019-02-28T01:51:36.589Z,20.10
2019-02-28T01:52:44.521Z,21.27
2019-02-28T01:53:46.754Z,19.80
2019-02-28T01:54:50.887Z,20.12
2019-02-28T01:55:54.997Z,17.67
2019-02-28T01:56:59.187Z,23.65
2019-02-28T01:58:03.283Z,21.85
2019-02-28T01:59:07.366Z,19.85
2019-02-28T02:00:13.192Z,25.97
2019-02-28T02:01:17.341Z,18.62
2019-02-28T02:02:21.513Z,17.85
2019-02-28T02:03:25.631Z,16.37
2019-02-28T02:04:29.733Z,20.27
2019-02-28T02:05:34.192Z,19.40
2019-02-28T02:06:38.546Z,21.02
2019-02-28T02:07:42.670Z,20.05
2019-02-28T02:08:46.778Z,22.95
2019-02-28T02:09:51.180Z,21.97
2019-02-28T02:10:56.162Z,26.50
2019-02-28T02:12:00.322Z,17.55
2019-02-28T02:13:04.522Z,20.45
2019-02-28T02:14:11.076Z,20.35
2019-02-28T02:15:16.885Z,19.50
2019-02-28T02:16:20.380Z,21.15
2019-02-28T02:17:24.495Z,20.80
2019-02-28T02:18:28.627Z,18.70
2019-02-28T02:19:32.719Z,22.40
2019-02-28T02:20:36.867Z,20.02
2019-02-28T02:21:40.976Z,22.55
2019-02-28T02:22:45.457Z,19.65
2019-02-28T02:23:52.955Z,21.55
2019-02-28T02:24:55.575Z,26.77
2019-02-28T02:25:59.688Z,21.40
2019-02-28T02:27:03.879Z,23.07
2019-02-28T02:28:08.255Z,19.42
2019-02-28T02:29:12.362Z,19.00
2019-02-28T02:30:18.705Z,19.90
2019-02-28T02:31:27.246Z,21.07
2019-02-28T02:32:28.696Z,20.60
2019-02-28T02:33:32.816Z,18.50
2019-02-28T02:34:36.961Z,21.30
2019-02-28T02:35:42.768Z,15.95
2019-02-28T02:36:53.123Z,20.20
2019-02-28T02:37:52.923Z,21.42
2019-02-28T02:38:57.361Z,21.97
2019-02-28T02:40:01.847Z,18.85
2019-02-28T02:41:06.261Z,19.42
2019-02-28T02:42:11.695Z,18.55
2019-02-28T02:43:15.907Z,19.70
2019-02-28T02:44:20.032Z,21.20
2019-02-28T02:45:24.579Z,17.73
2019-02-28T02:46:28.675Z,21.15
2019-02-28T02:47:32.787Z,17.98
2019-02-28T02:48:38.509Z,21.30
2019-02-28T02:49:42.704Z,19.37
2019-02-28T02:50:46.808Z,17.80
2019-02-28T02:51:50.900Z,19.12
2019-02-28T02:52:55.015Z,18.30
2019-02-28T02:53:59.458Z,20.20
2019-02-28T02:55:03.613Z,21.05
2019-02-28T02:56:07.716Z,22.42
2019-02-28T02:57:14.042Z,22.85
2019-02-28T02:58:17.643Z,21.02
2019-02-28T02:59:21.734Z,20.75
2019-02-28T03:00:25.859Z,16.73
2019-02-28T03:01:30.107Z,23.57
2019-02-28T03:02:34.343Z,19.17
2019-02-28T03:03:42.707Z,20.37
2019-02-28T03:04:44.335Z,19.57
2019-02-28T03:05:48.420Z,19.12
2019-02-28T03:06:52.512Z,25.02
2019-02-28T03:07:59.799Z,18.50
2019-02-28T03:09:02.491Z,17.80
2019-02-28T03:10:07.256Z,20.45
2019-02-28T03:11:11.447Z,21.77
2019-02-28T03:12:15.696Z,23.52
2019-02-28T03:13:20.160Z,20.32
2019-02-28T03:14:24.236Z,19.48
2019-02-28T03:15:28.587Z,17.10
2019-02-28T03:16:33.367Z,19.90
2019-02-28T03:17:38.768Z,20.97
2019-02-28T03:18:42.857Z,19.52
2019-02-28T03:19:46.999Z,19.77
2019-02-28T03:20:51.437Z,21.02
2019-02-28T03:21:55.536Z,20.15
2019-02-28T03:23:02.015Z,19.35
2019-02-28T03:24:05.492Z,17.85
2019-02-28T03:25:10.488Z,17.55
2019-02-28T03:26:14.602Z,18.00
2019-02-28T03:27:19.996Z,18.05
2019-02-28T03:28:24.339Z,18.98
2019-02-28T03:29:28.445Z,18.48
2019-02-28T03:30:33.618Z,18.15
2019-02-28T03:31:38.084Z,23.73
2019-02-28T03:32:42.825Z,21.82
2019-02-28T03:33:47.182Z,19.02
2019-02-28T03:34:58.190Z,17.90
2019-02-28T03:35:57.237Z,18.62
2019-02-28T03:37:01.355Z,19.67
2019-02-28T03:38:10.762Z,19.95
2019-02-28T03:39:11.413Z,22.10
2019-02-28T03:40:15.514Z,19.02
2019-02-28T03:41:19.743Z,20.27
2019-02-28T03:42:28.532Z,23.05
2019-02-28T03:43:29.726Z,18.37
2019-02-28T03:44:33.830Z,18.77
2019-02-28T03:45:38.175Z,16.57
2019-02-28T03:46:46.404Z,23.35
2019-02-28T03:47:48.125Z,20.57
2019-02-28T03:48:52.347Z,20.72
2019-02-28T03:49:56.443Z,23.70
2019-02-28T03:51:00.620Z,21.23
2019-02-28T03:52:06.631Z,23.57
2019-02-28T03:53:10.606Z,21.23
2019-02-28T03:54:14.712Z,19.27
2019-02-28T03:55:18.804Z,23.27
2019-02-28T03:56:22.929Z,19.17
2019-02-28T03:57:29.319Z,22.02
2019-02-28T03:58:33.182Z,23.87
2019-02-28T03:59:37.318Z,24.75
2019-02-28T04:00:41.715Z,17.50
2019-02-28T04:01:46.547Z,20.20
2019-02-28T04:02:56.625Z,19.32
2019-02-28T04:03:56.687Z,19.10
2019-02-28T04:05:01.064Z,21.30
2019-02-28T04:06:05.187Z,22.98
2019-02-28T04:07:15.556Z,18.80
2019-02-28T04:08:15.417Z,23.05
2019-02-28T04:09:19.564Z,20.43
2019-02-28T04:10:23.674Z,21.37
2019-02-28T04:11:31.152Z,21.70
2019-02-28T04:12:33.660Z,21.52
2019-02-28T04:13:37.833Z,23.10
2019-02-28T04:14:42.145Z,20.52
2019-02-28T04:16:01.433Z,22.73
2019-02-28T04:16:54.141Z,22.32
2019-02-28T04:17:57.872Z,20.60
2019-02-28T04:19:01.960Z,19.98
2019-02-28T04:20:06.142Z,17.95
2019-02-28T04:21:12.043Z,27.90
2019-02-28T04:22:19.422Z,18.42
2019-02-28T04:23:21.886Z,21.30
2019-02-28T04:24:26.072Z,20.50
2019-02-28T04:25:30.279Z,19.77
2019-02-28T04:26:34.445Z,21.40
2019-02-28T04:27:40.397Z,22.58
2019-02-28T04:28:44.392Z,23.77
2019-02-28T04:29:48.514Z,23.20
2019-02-28T04:30:52.639Z,18.80
2019-02-28T04:31:58.104Z,21.37
2019-02-28T04:33:02.521Z,19.98
2019-02-28T04:34:13.099Z,21.57
2019-02-28T04:35:12.675Z,21.10
2019-02-28T04:36:16.804Z,22.40
2019-02-28T04:37:20.916Z,21.77
2019-02-28T04:38:25.018Z,25.92
2019-02-28T04:39:29.119Z,20.50
2019-02-28T04:40:33.300Z,22.40
2019-02-28T04:41:37.406Z,19.45
2019-02-28T04:42:41.523Z,22.15
2019-02-28T04:43:45.694Z,25.50
2019-02-28T04:44:51.958Z,19.87
2019-02-28T04:45:57.698Z,22.55
2019-02-28T04:47:03.479Z,24.75
2019-02-28T04:48:07.380Z,24.35
2019-02-28T04:49:11.500Z,22.35
2019-02-28T04:50:15.593Z,26.85
2019-02-28T04:51:19.730Z,21.48
2019-02-28T04:52:23.847Z,24.23
2019-02-28T04:53:28.023Z,34.20
2019-02-28T04:54:32.129Z,25.48
2019-02-28T04:55:37.154Z,25.20
2019-02-28T04:56:45.504Z,32.30
2019-02-28T04:57:48.311Z,27.58
2019-02-28T04:58:52.656Z,25.55
2019-02-28T04:59:57.127Z,24.85
2019-02-28T05:01:01.507Z,27.22
2019-02-28T05:02:05.631Z,25.90
2019-02-28T05:03:09.715Z,24.10
2019-02-28T05:04:13.840Z,30.35
2019-02-28T05:05:18.083Z,31.15
2019-02-28T05:06:22.195Z,29.67
2019-02-28T05:07:29.692Z,27.62
2019-02-28T05:08:32.130Z,24.92
2019-02-28T05:09:36.219Z,28.40
2019-02-28T05:10:40.345Z,27.62
2019-02-28T05:11:44.495Z,24.70
2019-02-28T05:12:48.715Z,24.90
2019-02-28T05:13:52.815Z,28.87
2019-02-28T05:14:58.492Z,29.00
2019-02-28T05:16:02.708Z,27.90
2019-02-28T05:17:06.819Z,27.17
2019-02-28T05:18:10.939Z,24.07
2019-02-28T05:19:15.278Z,25.52
2019-02-28T05:20:19.379Z,27.82
2019-02-28T05:21:23.488Z,27.93
2019-02-28T05:22:28.648Z,30.72
2019-02-28T05:23:35.775Z,24.70
2019-02-28T05:24:39.386Z,26.15
2019-02-28T05:25:44.654Z,28.95
2019-02-28T05:26:48.747Z,31.68
2019-02-28T05:27:52.876Z,27.82
2019-02-28T05:28:57.055Z,27.40
2019-02-28T05:30:01.179Z,25.72
2019-02-28T05:31:05.351Z,34.35
2019-02-28T05:32:09.453Z,27.45
2019-02-28T05:33:13.819Z,24.98
2019-02-28T05:34:17.909Z,28.40
2019-02-28T05:35:25.162Z,34.85
2019-02-28T05:36:27.815Z,33.23
2019-02-28T05:37:31.932Z,29.05
2019-02-28T05:38:36.340Z,31.57
2019-02-28T05:39:40.479Z,28.52
2019-02-28T05:40:44.570Z,29.85
2019-02-28T05:41:49.466Z,34.92
2019-02-28T05:42:54.711Z,30.88
2019-02-28T05:44:00.065Z,31.27
2019-02-28T05:45:04.499Z,35.92
2019-02-28T05:46:08.591Z,33.60
2019-02-28T05:47:12.771Z,34.00
2019-02-28T05:48:16.899Z,38.73
2019-02-28T05:49:21.269Z,37.35
2019-02-28T05:50:25.371Z,40.00
2019-02-28T05:51:29.487Z,39.63
2019-02-28T05:52:34.409Z,33.40
2019-02-28T05:53:41.250Z,34.45
2019-02-28T05:54:47.188Z,39.78
2019-02-28T05:55:50.345Z,49.98
2019-02-28T05:56:54.507Z,42.93
2019-02-28T05:57:58.711Z,52.05
2019-02-28T05:59:02.826Z,49.30
2019-02-28T06:00:07.487Z,43.40
2019-02-28T06:01:11.917Z,38.73
2019-02-28T06:02:18.994Z,38.73
2019-02-28T06:03:22.617Z,33.15
2019-02-28T06:04:26.749Z,38.80
2019-02-28T06:05:30.894Z,42.50
2019-02-28T06:06:34.989Z,37.80
2019-02-28T06:07:39.106Z,41.77
2019-02-28T06:08:43.472Z,42.40
2019-02-28T06:09:48.675Z,32.23
2019-02-28T06:10:56.062Z,34.38
2019-02-28T06:11:59.269Z,37.28
2019-02-28T06:13:03.375Z,33.67
2019-02-28T06:14:07.459Z,36.63
2019-02-28T06:15:11.600Z,34.73
2019-02-28T06:16:16.246Z,31.45
2019-02-28T06:17:20.821Z,34.58
2019-02-28T06:18:32.705Z,33.92
2019-02-28T06:19:34.782Z,35.55
2019-02-28T06:20:38.889Z,38.05
2019-02-28T06:21:42.984Z,41.50
2019-02-28T06:22:47.168Z,40.73
2019-02-28T06:23:51.286Z,37.30
2019-02-28T06:24:55.400Z,38.65
2019-02-28T06:26:04.356Z,41.10
2019-02-28T06:27:08.524Z,39.78
2019-02-28T06:28:21.313Z,38.23
2019-02-28T06:29:25.410Z,38.17
2019-02-28T06:30:29.567Z,42.15
2019-02-28T06:31:34.463Z,43.80
2019-02-28T06:32:38.997Z,43.38
2019-02-28T06:33:43.692Z,42.17
2019-02-28T06:34:48.098Z,48.90
2019-02-28T06:35:53.584Z,45.92
2019-02-28T06:37:00.382Z,46.25
2019-02-28T06:38:06.819Z,53.02
2019-02-28T06:39:11.937Z,57.58
2019-02-28T06:40:16.128Z,46.75
2019-02-28T06:41:20.252Z,50.15
2019-02-28T06:42:24.412Z,51.08
2019-02-28T06:43:28.508Z,48.70
2019-02-28T06:44:34.505Z,42.78
2019-02-28T06:45:38.728Z,43.13
2019-02-28T06:46:43.107Z,52.27
2019-02-28T06:47:49.585Z,51.58
2019-02-28T06:48:54.300Z,46.58
2019-02-28T06:49:58.444Z,46.23
2019-02-28T06:51:02.667Z,45.33
2019-02-28T06:52:07.163Z,38.38
2019-02-28T06:53:11.266Z,43.35
2019-02-28T06:54:15.631Z,45.40
2019-02-28T06:55:23.292Z,38.02
2019-02-28T06:56:28.107Z,45.10
2019-02-28T06:57:33.080Z,43.55
2019-02-28T06:58:37.545Z,40.98
2019-02-28T06:59:42.186Z,42.75
2019-02-28T07:00:47.346Z,41.55
2019-02-28T07:01:56.552Z,41.73
2019-02-28T07:02:58.095Z,41.08
2019-02-28T07:04:02.189Z,37.73
2019-02-28T07:05:06.544Z,40.55
2019-02-28T07:06:11.952Z,32.42
2019-02-28T07:07:16.631Z,35.63
2019-02-28T07:08:24.935Z,34.78
2019-02-28T07:09:26.533Z,34.90
2019-02-28T07:10:31.655Z,35.00
2019-02-28T07:11:35.791Z,33.25
2019-02-28T07:12:39.990Z,35.98
2019-02-28T07:13:44.127Z,32.10
2019-02-28T07:14:50.791Z,31.80
2019-02-28T07:15:55.559Z,35.92
2019-02-28T07:17:02.092Z,28.98
2019-02-28T07:18:06.189Z,30.08
2019-02-28T07:19:10.284Z,29.57
2019-02-28T07:20:14.629Z,33.58
2019-02-28T07:21:18.787Z,28.12
2019-02-28T07:22:23.167Z,32.42
2019-02-28T07:23:29.927Z,29.23
2019-02-28T07:24:37.217Z,32.48
2019-02-28T07:25:39.248Z,25.95
2019-02-28T07:26:43.363Z,32.03
2019-02-28T07:27:47.480Z,30.35
2019-02-28T07:28:51.605Z,29.02
2019-02-28T07:29:55.756Z,28.40
2019-02-28T07:31:00.501Z,30.72
2019-02-28T07:32:07.403Z,27.77
2019-02-28T07:33:11.568Z,30.32
2019-02-28T07:34:19.590Z,32.17
2019-02-28T07:35:21.490Z,32.08
2019-02-28T07:36:25.594Z,33.08
2019-02-28T07:37:29.704Z,32.23
2019-02-28T07:38:34.101Z,34.92
2019-02-28T07:39:40.277Z,32.38
2019-02-28T07:40:45.705Z,31.33
2019-02-28T07:41:49.947Z,31.40
2019-02-28T07:42:54.077Z,32.45
2019-02-28T07:43:59.065Z,31.12
2019-02-28T07:45:03.347Z,33.28
2019-02-28T07:46:08.724Z,36.83
2019-02-28T07:47:17.142Z,31.40
2019-02-28T07:48:18.825Z,34.43
2019-02-28T07:49:25.675Z,36.33
2019-02-28T07:50:28.742Z,37.73
2019-02-28T07:51:32.919Z,35.92
2019-02-28T07:52:37.042Z,35.33
2019-02-28T07:53:42.075Z,35.58
2019-02-28T07:54:47.451Z,41.70
2019-02-28T07:55:52.038Z,39.27
2019-02-28T07:56:58.403Z,38.63
2019-02-28T07:58:02.581Z,37.98
2019-02-28T07:59:08.671Z,38.83
2019-02-28T08:00:18.225Z,33.70
2019-02-28T08:01:24.444Z,37.63
2019-02-28T08:02:27.118Z,34.65
2019-02-28T08:03:31.311Z,37.98
2019-02-28T08:04:35.528Z,40.15
2019-02-28T08:05:40.710Z,35.03
2019-02-28T08:06:44.835Z,37.83
2019-02-28T08:07:52.646Z,36.65
2019-02-28T08:08:58.036Z,41.33
2019-02-28T08:10:02.172Z,36.03
2019-02-28T08:11:06.327Z,33.38
2019-02-28T08:12:12.159Z,37.85
2019-02-28T08:13:17.951Z,37.55
2019-02-28T08:14:22.128Z,38.73
2019-02-28T08:15:26.227Z,36.83
2019-02-28T08:16:30.592Z,38.08
2019-02-28T08:17:36.243Z,41.10
2019-02-28T08:18:40.439Z,44.45
2019-02-28T08:19:44.583Z,42.17
2019-02-28T08:20:48.719Z,44.53
2019-02-28T08:21:52.880Z,44.90
2019-02-28T08:22:57.798Z,39.10
2019-02-28T08:24:02.503Z,39.85
2019-02-28T08:25:08.816Z,39.73
2019-02-28T08:26:15.456Z,39.48
2019-02-28T08:27:18.796Z,36.65
2019-02-28T08:28:25.076Z,40.33
2019-02-28T08:29:29.207Z,41.45
2019-02-28T08:30:33.378Z,39.03
2019-02-28T08:31:37.498Z,39.35
2019-02-28T08:32:43.937Z,44.20
2019-02-28T08:33:49.105Z,42.55
2019-02-28T08:34:58.495Z,38.10
2019-02-28T08:35:59.274Z,36.70
2019-02-28T08:37:03.372Z,40.50
2019-02-28T08:38:07.468Z,36.42
2019-02-28T08:39:16.139Z,42.38
2019-02-28T08:40:20.980Z,38.45
2019-02-28T08:41:25.709Z,37.83
2019-02-28T08:42:30.553Z,37.85
2019-02-28T08:43:39.105Z,37.00
2019-02-28T08:44:43.629Z,36.33
2019-02-28T08:45:50.823Z,36.25
2019-02-28T08:47:03.154Z,34.13
2019-02-28T08:48:46.422Z,37.65
2019-02-28T08:50:32.444Z,33.18
2019-02-28T08:51:45.717Z,37.08
2019-02-28T08:52:51.629Z,34.35
2019-02-28T08:53:56.473Z,36.35
2019-02-28T08:55:03.043Z,43.85
2019-02-28T08:56:11.036Z,39.05
2019-02-28T08:57:17.689Z,35.83
2019-02-28T08:58:24.562Z,36.77
2019-02-28T08:59:42.022Z,40.08
2019-02-28T09:00:54.552Z,31.60
2019-02-28T09:02:02.976Z,31.60
2019-02-28T09:03:14.200Z,29.15
2019-02-28T09:04:18.756Z,31.80
2019-02-28T09:05:35.971Z,31.93
2019-02-28T09:06:42.800Z,29.85
2019-02-28T09:07:52.937Z,31.48
2019-02-28T09:09:02.226Z,38.45
2019-02-28T09:10:11.777Z,37.67
2019-02-28T09:11:20.626Z,30.72
2019-02-28T09:12:23.128Z,34.33
2019-02-28T09:13:27.620Z,32.00
2019-02-28T09:14:32.245Z,34.95
2019-02-28T09:15:36.810Z,32.48
2019-02-28T09:16:49.278Z,34.10
2019-02-28T09:17:58.167Z,32.50
2019-02-28T09:19:02.978Z,33.20
2019-02-28T09:20:10.504Z,35.23
2019-02-28T09:21:18.404Z,36.58
2019-02-28T09:22:39.957Z,29.95
2019-02-28T09:23:47.346Z,37.05
2019-02-28T09:24:51.923Z,37.98
2019-02-28T09:26:10.481Z,38.50
2019-02-28T09:27:15.298Z,36.48
2019-02-28T09:28:20.977Z,34.83
2019-02-28T09:29:28.073Z,36.05
2019-02-28T09:30:41.957Z,37.53
2019-02-28T09:31:56.221Z,31.25
2019-02-28T09:33:01.994Z,36.58
2019-02-28T09:34:06.528Z,34.95
2019-02-28T09:35:14.408Z,32.48
2019-02-28T09:36:23.972Z,36.25
2019-02-28T09:37:34.555Z,35.98
2019-02-28T09:38:39.169Z,41.42
2019-02-28T09:39:45.263Z,43.85
2019-02-28T09:40:51.873Z,35.85
2019-02-28T09:41:58.706Z,38.33
2019-02-28T09:43:04.817Z,39.48
2019-02-28T09:44:15.069Z,43.08
2019-02-28T09:45:25.964Z,40.48
2019-02-28T09:46:32.918Z,38.35
2019-02-28T09:47:40.973Z,38.95
2019-02-28T09:48:47.466Z,39.45
2019-02-28T09:49:59.533Z,36.00
2019-02-28T09:51:07.996Z,38.48
2019-02-28T09:52:12.452Z,43.23
2019-02-28T09:53:22.497Z,39.10
2019-02-28T09:54:32.163Z,38.75
2019-02-28T09:55:45.376Z,41.30
2019-02-28T09:56:56.052Z,43.87
2019-02-28T09:58:02.559Z,46.90
2019-02-28T09:59:11.831Z,41.23
2019-02-28T10:00:27.607Z,43.50
2019-02-28T10:01:32.186Z,49.53
2019-02-28T10:02:45.581Z,46.30
2019-02-28T10:03:55.338Z,46.73
2019-02-28T10:05:07.477Z,39.50
2019-02-28T10:06:17.566Z,42.03
2019-02-28T10:07:23.334Z,41.63
2019-02-28T10:08:33.595Z,44.95
2019-02-28T10:09:44.358Z,48.80
2019-02-28T10:10:52.379Z,46.42
2019-02-28T10:11:58.870Z,43.28
2019-02-28T10:13:06.474Z,47.17
2019-02-28T10:14:17.065Z,39.63
2019-02-28T10:15:24.667Z,46.80
2019-02-28T10:16:34.782Z,40.10
2019-02-28T10:17:44.376Z,41.10
2019-02-28T10:18:48.882Z,44.63
2019-02-28T10:19:53.458Z,41.77
2019-02-28T10:21:02.754Z,49.35
2019-02-28T10:22:10.157Z,46.55
2019-02-28T10:23:18.384Z,41.35
2019-02-28T10:24:22.056Z,47.75
2019-02-28T10:25:26.161Z,49.93
2019-02-28T10:26:30.308Z,50.75
2019-02-28T10:27:36.725Z,45.83
2019-02-28T10:28:40.914Z,44.98
2019-02-28T10:29:45.029Z,41.70
2019-02-28T10:30:50.150Z,45.83
2019-02-28T10:31:54.930Z,47.25
2019-02-28T10:32:59.057Z,48.52
2019-02-28T10:34:03.179Z,47.83
2019-02-28T10:35:07.683Z,44.95
2019-02-28T10:36:13.014Z,43.78
2019-02-28T10:37:19.314Z,46.83
2019-02-28T10:38:23.494Z,44.15
2019-02-28T10:39:27.599Z,41.85
2019-02-28T10:40:31.718Z,73.30
2019-02-28T10:41:35.918Z,55.48
2019-02-28T10:42:41.281Z,44.35
2019-02-28T10:43:49.925Z,45.43
2019-02-28T10:44:51.443Z,42.98
2019-02-28T10:45:55.551Z,47.70
2019-02-28T10:46:59.652Z,39.15
2019-02-28T10:48:04.108Z,42.35
2019-02-28T10:49:08.250Z,47.15
2019-02-28T10:50:14.975Z,41.13
2019-02-28T10:51:19.094Z,38.08
2019-02-28T10:52:23.529Z,36.28
2019-02-28T10:53:29.615Z,47.93
2019-02-28T10:54:33.888Z,42.60
2019-02-28T10:55:38.004Z,37.60
2019-02-28T10:56:42.186Z,42.08
2019-02-28T10:57:46.301Z,44.48
2019-02-28T10:58:51.051Z,38.63
2019-02-28T10:59:58.170Z,40.70
2019-02-28T11:01:01.188Z,38.08
2019-02-28T11:02:05.286Z,39.00
2019-02-28T11:03:09.389Z,38.98
2019-02-28T11:04:13.475Z,38.55
2019-02-28T11:05:20.126Z,47.90
2019-02-28T11:06:25.272Z,40.35
2019-02-28T11:07:30.067Z,40.35
2019-02-28T11:08:34.184Z,36.70
2019-02-28T11:09:38.375Z,34.98
2019-02-28T11:10:42.706Z,33.55
2019-02-28T11:11:46.820Z,37.83
2019-02-28T11:12:50.985Z,33.18
2019-02-28T11:13:55.067Z,36.28
2019-02-28T11:14:59.222Z,35.98
2019-02-28T11:16:03.370Z,29.67
2019-02-28T11:17:13.408Z,28.90
2019-02-28T11:18:13.307Z,29.92
2019-02-28T11:19:19.430Z,34.05
2019-02-28T11:20:26.229Z,35.35
2019-02-28T11:21:30.406Z,36.25
2019-02-28T11:22:36.496Z,37.60
2019-02-28T11:23:40.539Z,34.92
2019-02-28T11:24:44.667Z,31.55
2019-02-28T11:25:48.797Z,33.85
2019-02-28T11:26:53.025Z,31.25
2019-02-28T11:27:57.259Z,34.40
2019-02-28T11:29:03.164Z,30.20
2019-02-28T11:30:09.980Z,31.70
2019-02-28T11:31:13.263Z,36.68
2019-02-28T11:32:17.378Z,33.90
2019-02-28T11:33:22.862Z,37.42
2019-02-28T11:34:27.105Z,30.00
2019-02-28T11:35:31.488Z,32.20
2019-02-28T11:36:35.806Z,31.33
2019-02-28T11:37:42.364Z,34.50
2019-02-28T11:38:45.968Z,31.20
2019-02-28T11:39:50.175Z,29.80
2019-02-28T11:40:57.323Z,32.67
2019-02-28T11:42:00.164Z,36.73
2019-02-28T11:43:04.481Z,32.15
2019-02-28T11:44:09.294Z,29.67
2019-02-28T11:45:18.516Z,34.08
2019-02-28T11:46:22.479Z,32.73
2019-02-28T11:47:26.712Z,34.50
2019-02-28T11:48:30.844Z,37.50
2019-02-28T11:49:34.986Z,29.55
2019-02-28T11:50:42.425Z,35.23
2019-02-28T11:51:44.911Z,27.42
2019-02-28T11:52:49.034Z,27.37
2019-02-28T11:53:53.147Z,31.70
2019-02-28T11:54:57.256Z,29.77
2019-02-28T11:56:01.338Z,32.88
2019-02-28T11:57:06.821Z,34.43
2019-02-28T11:58:16.320Z,33.02
2019-02-28T11:59:16.932Z,29.92
2019-02-28T12:00:27.555Z,31.90
2019-02-28T12:01:31.660Z,30.60
2019-02-28T12:02:35.756Z,31.87
2019-02-28T12:03:39.874Z,30.50
2019-02-28T12:04:44.004Z,32.83
2019-02-28T12:05:50.620Z,32.85
2019-02-28T12:06:53.915Z,32.08
2019-02-28T12:07:58.012Z,29.02
2019-02-28T12:09:02.123Z,33.58
2019-02-28T12:10:06.325Z,31.85
2019-02-28T12:11:10.487Z,31.02
2019-02-28T12:12:14.630Z,32.45
2019-02-28T12:13:19.594Z,36.60
2019-02-28T12:14:26.443Z,36.08
2019-02-28T12:15:30.625Z,37.23
2019-02-28T12:16:35.323Z,34.05
2019-02-28T12:17:45.646Z,32.95
2019-02-28T12:18:54.562Z,35.38
2019-02-28T12:20:03.755Z,32.35
2019-02-28T12:21:08.777Z,33.40
2019-02-28T12:22:17.233Z,36.88
2019-02-28T12:23:23.487Z,34.58
2019-02-28T12:24:40.007Z,34.63
2019-02-28T12:25:44.462Z,34.30
2019-02-28T12:26:52.724Z,33.40
2019-02-28T12:28:02.594Z,32.90
2019-02-28T12:29:14.890Z,34.95
2019-02-28T12:30:27.239Z,33.83
2019-02-28T12:31:49.567Z,32.83
2019-02-28T12:32:55.244Z,36.55
2019-02-28T12:34:02.227Z,32.45
2019-02-28T12:35:18.945Z,37.55
2019-02-28T12:36:27.633Z,38.65
2019-02-28T12:37:36.466Z,37.67
2019-02-28T12:38:46.057Z,40.85
2019-02-28T12:39:50.477Z,38.40
2019-02-28T12:40:58.030Z,45.12
2019-02-28T12:42:06.739Z,41.02
2019-02-28T12:43:13.463Z,44.30
2019-02-28T12:44:20.573Z,45.40
2019-02-28T12:45:32.001Z,45.50
2019-02-28T12:46:49.801Z,48.45
2019-02-28T12:47:56.768Z,55.95
2019-02-28T12:49:15.780Z,53.87
2019-02-28T12:50:24.301Z,36.60
2019-02-28T12:51:30.905Z,39.42
2019-02-28T12:52:51.187Z,54.03
2019-02-28T12:53:59.233Z,48.78
2019-02-28T12:55:14.166Z,54.88
2019-02-28T12:56:22.243Z,58.70
2019-02-28T12:57:29.996Z,53.83
2019-02-28T12:58:38.969Z,50.10
2019-02-28T13:00:00.029Z,44.48
2019-02-28T13:01:00.015Z,59.05
2019-02-28T13:02:08.422Z,53.52
2019-02-28T13:03:19.210Z,98.10
2019-02-28T13:04:32.600Z,71.10
2019-02-28T13:05:37.944Z,55.70
2019-02-28T13:06:42.360Z,54.42
2019-02-28T13:07:50.663Z,70.40
2019-02-28T13:09:00.817Z,61.48
2019-02-28T13:10:15.811Z,52.40
2019-02-28T13:11:20.252Z,66.95
2019-02-28T13:12:32.213Z,50.70
2019-02-28T13:13:39.753Z,51.25
2019-02-28T13:14:58.834Z,53.95
2019-02-28T13:16:05.210Z,44.95
2019-02-28T13:17:18.848Z,53.00
2019-02-28T13:18:26.884Z,42.50
2019-02-28T13:19:40.681Z,51.05
2019-02-28T13:20:53.030Z,40.12
2019-02-28T13:22:10.675Z,45.38
2019-02-28T13:23:18.577Z,55.12
2019-02-28T13:24:33.158Z,49.25
2019-02-28T13:25:39.983Z,43.30
2019-02-28T13:26:47.570Z,46.45
2019-02-28T13:27:55.685Z,44.55
2019-02-28T13:29:05.555Z,41.42
2019-02-28T13:30:26.507Z,48.45
2019-02-28T13:31:35.574Z,41.75
2019-02-28T13:32:46.031Z,40.83
2019-02-28T13:33:53.709Z,43.55
2019-02-28T13:35:02.975Z,45.90
2019-02-28T13:36:18.231Z,46.68
2019-02-28T13:37:23.509Z,38.17
2019-02-28T13:38:32.284Z,37.73
2019-02-28T13:39:41.095Z,40.40
2019-02-28T13:40:50.349Z,40.58
2019-02-28T13:42:09.414Z,40.30
2019-02-28T13:43:28.706Z,46.73
2019-02-28T13:44:38.293Z,45.17
2019-02-28T13:46:07.967Z,45.43
2019-02-28T13:47:24.656Z,43.63
2019-02-28T13:48:39.546Z,38.58
2019-02-28T13:49:49.815Z,47.60
2019-02-28T13:51:08.029Z,41.00
2019-02-28T13:52:20.554Z,36.40
2019-02-28T13:53:27.155Z,35.83
2019-02-28T13:54:34.555Z,39.00
2019-02-28T13:55:59.540Z,42.50
2019-02-28T13:57:08.160Z,41.48
2019-02-28T13:58:10.536Z,37.88
2019-02-28T13:59:15.526Z,45.40
2019-02-28T14:00:24.595Z,41.30
2019-02-28T14:01:28.726Z,38.83
2019-02-28T14:02:33.792Z,32.28
2019-02-28T14:03:38.330Z,43.48
2019-02-28T14:04:42.484Z,33.10
2019-02-28T14:05:46.731Z,40.05
2019-02-28T14:06:52.507Z,38.60
2019-02-28T14:07:56.767Z,34.43
2019-02-28T14:09:00.867Z,34.70